sensor_id;sensor_type;location;lat;lon;timestamp;P1;durP1;ratioP1;P2;durP2;ratioP2
36351;SDS011;22382;44.768;17.206;2023-02-26T00:01:35;6.28;;;3.42;;
36351;SDS011;22382;44.768;17.206;2023-02-26T00:04:03;6.40;;;3.88;;
36351;SDS011;22382;44.768;17.206;2023-02-26T00:06:32;7.45;;;4.05;;
36351;SDS011;22382;44.768;17.206;2023-02-26T00:09:02;4.63;;;3.20;;
36351;SDS011;22382;44.768;17.206;2023-02-26T00:11:31;4.45;;;3.50;;
36351;SDS011;22382;44.768;17.206;2023-02-26T00:13:59;7.45;;;4.22;;
36351;SDS011;22382;44.768;17.206;2023-02-26T00:16:31;7.50;;;4.15;;
36351;SDS011;22382;44.768;17.206;2023-02-26T00:19:01;5.97;;;3.83;;
36351;SDS011;22382;44.768;17.206;2023-02-26T00:21:30;5.60;;;3.35;;
36351;SDS011;22382;44.768;17.206;2023-02-26T00:23:58;4.90;;;3.25;;
36351;SDS011;22382;44.768;17.206;2023-02-26T00:26:28;5.70;;;3.17;;
36351;SDS011;22382;44.768;17.206;2023-02-26T00:28:57;4.40;;;2.90;;
36351;SDS011;22382;44.768;17.206;2023-02-26T00:31:25;5.78;;;3.22;;
36351;SDS011;22382;44.768;17.206;2023-02-26T00:33:53;5.50;;;3.42;;
36351;SDS011;22382;44.768;17.206;2023-02-26T00:36:23;5.15;;;3.15;;
36351;SDS011;22382;44.768;17.206;2023-02-26T00:41:48;5.18;;;2.95;;
36351;SDS011;22382;44.768;17.206;2023-02-26T00:44:15;4.97;;;3.10;;
36351;SDS011;22382;44.768;17.206;2023-02-26T00:46:52;6.68;;;3.33;;
36351;SDS011;22382;44.768;17.206;2023-02-26T00:54:56;5.43;;;4.00;;
36351;SDS011;22382;44.768;17.206;2023-02-26T00:57:23;6.03;;;3.80;;
36351;SDS011;22382;44.768;17.206;2023-02-26T00:59:50;6.13;;;3.97;;
36351;SDS011;22382;44.768;17.206;2023-02-26T01:02:17;6.65;;;4.13;;
36351;SDS011;22382;44.768;17.206;2023-02-26T01:04:45;7.22;;;4.50;;
36351;SDS011;22382;44.768;17.206;2023-02-26T01:07:13;6.93;;;4.60;;
36351;SDS011;22382;44.768;17.206;2023-02-26T01:09:43;8.63;;;4.45;;
36351;SDS011;22382;44.768;17.206;2023-02-26T01:12:10;7.53;;;4.15;;
36351;SDS011;22382;44.768;17.206;2023-02-26T01:14:39;5.63;;;3.97;;
36351;SDS011;22382;44.768;17.206;2023-02-26T01:20:04;8.43;;;4.38;;
36351;SDS011;22382;44.768;17.206;2023-02-26T01:25:47;7.35;;;3.58;;
36351;SDS011;22382;44.768;17.206;2023-02-26T01:28:16;6.95;;;4.00;;
36351;SDS011;22382;44.768;17.206;2023-02-26T01:30:44;7.20;;;3.78;;
36351;SDS011;22382;44.768;17.206;2023-02-26T01:36:07;6.22;;;3.10;;
36351;SDS011;22382;44.768;17.206;2023-02-26T01:49:40;7.13;;;3.50;;
36351;SDS011;22382;44.768;17.206;2023-02-26T01:55:12;4.93;;;2.35;;
36351;SDS011;22382;44.768;17.206;2023-02-26T01:57:41;6.63;;;2.85;;
36351;SDS011;22382;44.768;17.206;2023-02-26T02:00:10;4.75;;;2.20;;
36351;SDS011;22382;44.768;17.206;2023-02-26T02:02:37;5.18;;;2.50;;
36351;SDS011;22382;44.768;17.206;2023-02-26T02:05:16;5.40;;;1.83;;
36351;SDS011;22382;44.768;17.206;2023-02-26T02:07:50;4.70;;;1.80;;
36351;SDS011;22382;44.768;17.206;2023-02-26T02:10:17;3.58;;;1.80;;
36351;SDS011;22382;44.768;17.206;2023-02-26T02:12:56;3.90;;;1.63;;
36351;SDS011;22382;44.768;17.206;2023-02-26T02:31:12;2.13;;;1.30;;
36351;SDS011;22382;44.768;17.206;2023-02-26T02:33:20;2.25;;;1.42;;
36351;SDS011;22382;44.768;17.206;2023-02-26T02:36:02;4.18;;;1.08;;
36351;SDS011;22382;44.768;17.206;2023-02-26T02:38:41;3.47;;;1.27;;
36351;SDS011;22382;44.768;17.206;2023-02-26T02:41:16;3.00;;;1.63;;
36351;SDS011;22382;44.768;17.206;2023-02-26T02:43:47;3.97;;;1.75;;
36351;SDS011;22382;44.768;17.206;2023-02-26T02:46:20;3.20;;;2.05;;
36351;SDS011;22382;44.768;17.206;2023-02-26T02:48:54;3.92;;;2.45;;
36351;SDS011;22382;44.768;17.206;2023-02-26T02:53:59;4.30;;;2.78;;
36351;SDS011;22382;44.768;17.206;2023-02-26T02:56:42;3.85;;;2.40;;
36351;SDS011;22382;44.768;17.206;2023-02-26T02:59:19;2.47;;;1.60;;
36351;SDS011;22382;44.768;17.206;2023-02-26T03:02:15;1.70;;;1.50;;
36351;SDS011;22382;44.768;17.206;2023-02-26T03:04:49;3.88;;;1.70;;
36351;SDS011;22382;44.768;17.206;2023-02-26T03:07:16;2.38;;;1.40;;
36351;SDS011;22382;44.768;17.206;2023-02-26T03:09:43;2.28;;;1.63;;
36351;SDS011;22382;44.768;17.206;2023-02-26T03:12:11;2.15;;;1.40;;
36351;SDS011;22382;44.768;17.206;2023-02-26T03:14:38;3.15;;;1.70;;
36351;SDS011;22382;44.768;17.206;2023-02-26T03:22:42;2.50;;;1.67;;
36351;SDS011;22382;44.768;17.206;2023-02-26T03:28:12;2.83;;;1.75;;
36351;SDS011;22382;44.768;17.206;2023-02-26T03:33:52;4.07;;;2.08;;
36351;SDS011;22382;44.768;17.206;2023-02-26T03:42:07;4.22;;;2.45;;
36351;SDS011;22382;44.768;17.206;2023-02-26T03:44:36;3.75;;;2.90;;
36351;SDS011;22382;44.768;17.206;2023-02-26T03:47:12;5.97;;;3.95;;
36351;SDS011;22382;44.768;17.206;2023-02-26T03:49:43;5.80;;;3.75;;
36351;SDS011;22382;44.768;17.206;2023-02-26T03:52:13;6.40;;;4.40;;
36351;SDS011;22382;44.768;17.206;2023-02-26T03:54:56;7.68;;;5.07;;
36351;SDS011;22382;44.768;17.206;2023-02-26T03:57:36;6.00;;;4.00;;
36351;SDS011;22382;44.768;17.206;2023-02-26T04:00:04;7.32;;;4.88;;
36351;SDS011;22382;44.768;17.206;2023-02-26T04:05:18;7.18;;;4.97;;
36351;SDS011;22382;44.768;17.206;2023-02-26T04:07:47;6.60;;;4.45;;
36351;SDS011;22382;44.768;17.206;2023-02-26T04:10:17;7.28;;;4.30;;
36351;SDS011;22382;44.768;17.206;2023-02-26T04:12:47;7.35;;;4.80;;
36351;SDS011;22382;44.768;17.206;2023-02-26T04:15:14;12.68;;;6.45;;
36351;SDS011;22382;44.768;17.206;2023-02-26T04:17:41;7.95;;;4.85;;
36351;SDS011;22382;44.768;17.206;2023-02-26T04:20:08;8.10;;;5.30;;
36351;SDS011;22382;44.768;17.206;2023-02-26T04:22:36;8.85;;;5.55;;
36351;SDS011;22382;44.768;17.206;2023-02-26T04:25:04;5.93;;;4.30;;
36351;SDS011;22382;44.768;17.206;2023-02-26T04:27:31;7.82;;;4.05;;
36351;SDS011;22382;44.768;17.206;2023-02-26T04:29:58;5.10;;;3.30;;
36351;SDS011;22382;44.768;17.206;2023-02-26T04:32:25;4.20;;;2.53;;
36351;SDS011;22382;44.768;17.206;2023-02-26T04:34:53;4.25;;;2.40;;
36351;SDS011;22382;44.768;17.206;2023-02-26T04:37:20;3.20;;;2.10;;
36351;SDS011;22382;44.768;17.206;2023-02-26T04:39:47;3.05;;;2.53;;
36351;SDS011;22382;44.768;17.206;2023-02-26T04:42:14;3.28;;;2.15;;
36351;SDS011;22382;44.768;17.206;2023-02-26T04:44:41;3.78;;;1.88;;
36351;SDS011;22382;44.768;17.206;2023-02-26T04:47:08;5.32;;;2.60;;
36351;SDS011;22382;44.768;17.206;2023-02-26T04:49:35;4.50;;;2.28;;
36351;SDS011;22382;44.768;17.206;2023-02-26T04:52:02;2.38;;;1.98;;
36351;SDS011;22382;44.768;17.206;2023-02-26T04:54:30;2.13;;;1.25;;
36351;SDS011;22382;44.768;17.206;2023-02-26T04:56:57;2.33;;;1.50;;
36351;SDS011;22382;44.768;17.206;2023-02-26T04:59:24;1.95;;;1.13;;
36351;SDS011;22382;44.768;17.206;2023-02-26T05:01:51;2.60;;;1.33;;
36351;SDS011;22382;44.768;17.206;2023-02-26T05:04:18;1.80;;;1.05;;
36351;SDS011;22382;44.768;17.206;2023-02-26T05:06:45;2.50;;;0.98;;
36351;SDS011;22382;44.768;17.206;2023-02-26T05:09:12;2.20;;;1.27;;
36351;SDS011;22382;44.768;17.206;2023-02-26T05:11:39;2.90;;;1.40;;
36351;SDS011;22382;44.768;17.206;2023-02-26T05:14:06;1.85;;;1.10;;
36351;SDS011;22382;44.768;17.206;2023-02-26T05:16:34;2.88;;;1.40;;
36351;SDS011;22382;44.768;17.206;2023-02-26T05:19:01;2.88;;;1.58;;
36351;SDS011;22382;44.768;17.206;2023-02-26T05:21:28;1.90;;;1.20;;
36351;SDS011;22382;44.768;17.206;2023-02-26T05:23:55;2.08;;;1.42;;
36351;SDS011;22382;44.768;17.206;2023-02-26T05:26:22;2.65;;;1.20;;
36351;SDS011;22382;44.768;17.206;2023-02-26T05:28:49;2.60;;;1.50;;
36351;SDS011;22382;44.768;17.206;2023-02-26T05:31:17;1.33;;;1.20;;
36351;SDS011;22382;44.768;17.206;2023-02-26T05:33:44;2.00;;;1.50;;
36351;SDS011;22382;44.768;17.206;2023-02-26T05:36:12;2.47;;;1.63;;
36351;SDS011;22382;44.768;17.206;2023-02-26T05:38:39;2.15;;;1.40;;
36351;SDS011;22382;44.768;17.206;2023-02-26T05:41:06;2.13;;;1.13;;
36351;SDS011;22382;44.768;17.206;2023-02-26T05:43:33;2.45;;;1.20;;
36351;SDS011;22382;44.768;17.206;2023-02-26T05:46:01;1.75;;;1.55;;
36351;SDS011;22382;44.768;17.206;2023-02-26T05:48:28;2.95;;;1.70;;
36351;SDS011;22382;44.768;17.206;2023-02-26T05:50:55;1.75;;;1.20;;
36351;SDS011;22382;44.768;17.206;2023-02-26T05:53:22;3.15;;;1.80;;
36351;SDS011;22382;44.768;17.206;2023-02-26T05:55:51;2.50;;;1.80;;
36351;SDS011;22382;44.768;17.206;2023-02-26T05:58:19;2.70;;;1.63;;
36351;SDS011;22382;44.768;17.206;2023-02-26T06:00:46;3.47;;;2.10;;
36351;SDS011;22382;44.768;17.206;2023-02-26T06:03:13;2.90;;;2.05;;
36351;SDS011;22382;44.768;17.206;2023-02-26T06:05:40;2.50;;;1.98;;
36351;SDS011;22382;44.768;17.206;2023-02-26T06:08:07;2.90;;;2.13;;
36351;SDS011;22382;44.768;17.206;2023-02-26T06:10:34;3.85;;;2.30;;
36351;SDS011;22382;44.768;17.206;2023-02-26T06:13:02;3.33;;;2.33;;
36351;SDS011;22382;44.768;17.206;2023-02-26T06:15:29;4.35;;;2.60;;
36351;SDS011;22382;44.768;17.206;2023-02-26T06:17:56;4.00;;;2.63;;
36351;SDS011;22382;44.768;17.206;2023-02-26T06:20:23;4.00;;;2.63;;
36351;SDS011;22382;44.768;17.206;2023-02-26T06:22:50;3.83;;;2.60;;
36351;SDS011;22382;44.768;17.206;2023-02-26T06:25:17;4.20;;;3.13;;
36351;SDS011;22382;44.768;17.206;2023-02-26T06:27:45;3.67;;;3.20;;
36351;SDS011;22382;44.768;17.206;2023-02-26T06:30:12;4.57;;;3.00;;
36351;SDS011;22382;44.768;17.206;2023-02-26T06:32:40;5.28;;;3.42;;
36351;SDS011;22382;44.768;17.206;2023-02-26T06:35:07;4.30;;;2.75;;
36351;SDS011;22382;44.768;17.206;2023-02-26T06:37:34;4.68;;;3.05;;
36351;SDS011;22382;44.768;17.206;2023-02-26T06:40:02;4.15;;;2.90;;
36351;SDS011;22382;44.768;17.206;2023-02-26T06:42:30;5.53;;;3.70;;
36351;SDS011;22382;44.768;17.206;2023-02-26T06:44:57;6.22;;;4.40;;
36351;SDS011;22382;44.768;17.206;2023-02-26T06:47:24;8.68;;;5.28;;
36351;SDS011;22382;44.768;17.206;2023-02-26T06:49:52;8.45;;;5.38;;
36351;SDS011;22382;44.768;17.206;2023-02-26T06:52:19;7.95;;;5.75;;
36351;SDS011;22382;44.768;17.206;2023-02-26T06:54:46;8.45;;;5.90;;
36351;SDS011;22382;44.768;17.206;2023-02-26T06:57:13;9.38;;;5.63;;
36351;SDS011;22382;44.768;17.206;2023-02-26T06:59:40;7.63;;;4.90;;
36351;SDS011;22382;44.768;17.206;2023-02-26T07:02:10;7.10;;;5.18;;
36351;SDS011;22382;44.768;17.206;2023-02-26T07:04:43;8.45;;;5.38;;
36351;SDS011;22382;44.768;17.206;2023-02-26T07:07:10;6.35;;;4.53;;
36351;SDS011;22382;44.768;17.206;2023-02-26T07:09:38;10.57;;;6.78;;
36351;SDS011;22382;44.768;17.206;2023-02-26T07:12:05;11.85;;;7.35;;
36351;SDS011;22382;44.768;17.206;2023-02-26T07:14:33;12.80;;;7.70;;
36351;SDS011;22382;44.768;17.206;2023-02-26T07:17:01;11.27;;;7.85;;
36351;SDS011;22382;44.768;17.206;2023-02-26T07:19:29;16.05;;;10.10;;
36351;SDS011;22382;44.768;17.206;2023-02-26T07:21:56;16.52;;;9.88;;
36351;SDS011;22382;44.768;17.206;2023-02-26T07:24:23;13.38;;;9.52;;
36351;SDS011;22382;44.768;17.206;2023-02-26T07:26:51;24.05;;;14.82;;
36351;SDS011;22382;44.768;17.206;2023-02-26T07:29:18;16.65;;;11.15;;
36351;SDS011;22382;44.768;17.206;2023-02-26T07:31:45;23.05;;;15.20;;
36351;SDS011;22382;44.768;17.206;2023-02-26T07:34:13;24.35;;;17.20;;
36351;SDS011;22382;44.768;17.206;2023-02-26T07:36:40;24.02;;;17.40;;
36351;SDS011;22382;44.768;17.206;2023-02-26T07:39:07;23.00;;;16.05;;
36351;SDS011;22382;44.768;17.206;2023-02-26T07:41:34;26.90;;;18.40;;
36351;SDS011;22382;44.768;17.206;2023-02-26T07:44:01;29.20;;;20.10;;
36351;SDS011;22382;44.768;17.206;2023-02-26T07:46:28;28.02;;;19.20;;
36351;SDS011;22382;44.768;17.206;2023-02-26T07:48:56;27.77;;;20.23;;
36351;SDS011;22382;44.768;17.206;2023-02-26T07:51:23;29.08;;;19.60;;
36351;SDS011;22382;44.768;17.206;2023-02-26T07:53:51;24.58;;;16.77;;
36351;SDS011;22382;44.768;17.206;2023-02-26T07:56:18;25.33;;;14.48;;
36351;SDS011;22382;44.768;17.206;2023-02-26T07:58:45;25.27;;;14.50;;
36351;SDS011;22382;44.768;17.206;2023-02-26T08:01:12;24.77;;;13.50;;
36351;SDS011;22382;44.768;17.206;2023-02-26T08:03:39;23.60;;;13.65;;
36351;SDS011;22382;44.768;17.206;2023-02-26T08:06:06;30.42;;;16.65;;
36351;SDS011;22382;44.768;17.206;2023-02-26T08:08:34;21.95;;;13.38;;
36351;SDS011;22382;44.768;17.206;2023-02-26T08:11:01;25.20;;;13.48;;
36351;SDS011;22382;44.768;17.206;2023-02-26T08:13:28;23.00;;;13.40;;
36351;SDS011;22382;44.768;17.206;2023-02-26T08:15:55;19.48;;;11.93;;
36351;SDS011;22382;44.768;17.206;2023-02-26T08:18:22;22.42;;;11.73;;
36351;SDS011;22382;44.768;17.206;2023-02-26T08:20:50;21.50;;;10.90;;
36351;SDS011;22382;44.768;17.206;2023-02-26T08:23:18;28.17;;;12.98;;
36351;SDS011;22382;44.768;17.206;2023-02-26T08:25:45;24.98;;;12.77;;
36351;SDS011;22382;44.768;17.206;2023-02-26T08:28:12;27.60;;;13.82;;
36351;SDS011;22382;44.768;17.206;2023-02-26T08:30:39;26.20;;;12.20;;
36351;SDS011;22382;44.768;17.206;2023-02-26T08:33:07;27.38;;;14.27;;
36351;SDS011;22382;44.768;17.206;2023-02-26T08:35:34;23.13;;;13.00;;
36351;SDS011;22382;44.768;17.206;2023-02-26T08:38:01;25.52;;;13.05;;
36351;SDS011;22382;44.768;17.206;2023-02-26T08:40:28;23.08;;;12.70;;
36351;SDS011;22382;44.768;17.206;2023-02-26T08:42:55;24.65;;;13.57;;
36351;SDS011;22382;44.768;17.206;2023-02-26T08:45:25;20.13;;;12.30;;
36351;SDS011;22382;44.768;17.206;2023-02-26T08:47:52;17.48;;;11.07;;
36351;SDS011;22382;44.768;17.206;2023-02-26T08:50:23;19.08;;;10.90;;
36351;SDS011;22382;44.768;17.206;2023-02-26T08:52:51;16.20;;;10.52;;
36351;SDS011;22382;44.768;17.206;2023-02-26T08:55:20;16.38;;;9.63;;
36351;SDS011;22382;44.768;17.206;2023-02-26T08:57:48;13.70;;;8.00;;
36351;SDS011;22382;44.768;17.206;2023-02-26T09:00:15;10.43;;;6.63;;
36351;SDS011;22382;44.768;17.206;2023-02-26T09:02:44;10.10;;;6.90;;
36351;SDS011;22382;44.768;17.206;2023-02-26T09:05:12;10.63;;;6.78;;
36351;SDS011;22382;44.768;17.206;2023-02-26T09:07:44;10.00;;;6.00;;
36351;SDS011;22382;44.768;17.206;2023-02-26T09:10:16;9.23;;;6.50;;
36351;SDS011;22382;44.768;17.206;2023-02-26T09:12:45;8.70;;;5.80;;
36351;SDS011;22382;44.768;17.206;2023-02-26T09:15:17;14.45;;;8.15;;
36351;SDS011;22382;44.768;17.206;2023-02-26T09:17:50;38.58;;;19.70;;
36351;SDS011;22382;44.768;17.206;2023-02-26T09:20:20;36.08;;;19.13;;
36351;SDS011;22382;44.768;17.206;2023-02-26T09:22:52;6.57;;;4.25;;
36351;SDS011;22382;44.768;17.206;2023-02-26T09:25:23;6.47;;;4.28;;
36351;SDS011;22382;44.768;17.206;2023-02-26T09:27:54;8.77;;;5.80;;
36351;SDS011;22382;44.768;17.206;2023-02-26T09:30:26;8.73;;;6.18;;
36351;SDS011;22382;44.768;17.206;2023-02-26T09:32:57;16.43;;;10.97;;
36351;SDS011;22382;44.768;17.206;2023-02-26T09:35:24;14.25;;;8.77;;
36351;SDS011;22382;44.768;17.206;2023-02-26T09:37:51;13.45;;;8.52;;
36351;SDS011;22382;44.768;17.206;2023-02-26T09:45:40;25.58;;;13.10;;
36351;SDS011;22382;44.768;17.206;2023-02-26T09:48:10;19.77;;;10.10;;
36351;SDS011;22382;44.768;17.206;2023-02-26T09:50:44;12.02;;;6.70;;
36351;SDS011;22382;44.768;17.206;2023-02-26T09:53:21;7.70;;;5.03;;
36351;SDS011;22382;44.768;17.206;2023-02-26T09:56:42;10.45;;;6.15;;
36351;SDS011;22382;44.768;17.206;2023-02-26T09:58:51;17.50;;;11.38;;
36351;SDS011;22382;44.768;17.206;2023-02-26T10:01:25;24.42;;;14.35;;
36351;SDS011;22382;44.768;17.206;2023-02-26T10:12:29;34.60;;;20.42;;
36351;SDS011;22382;44.768;17.206;2023-02-26T10:14:59;35.47;;;21.35;;
36351;SDS011;22382;44.768;17.206;2023-02-26T10:17:34;38.05;;;24.10;;
36351;SDS011;22382;44.768;17.206;2023-02-26T10:20:10;42.42;;;26.77;;
36351;SDS011;22382;44.768;17.206;2023-02-26T10:25:46;47.65;;;29.55;;
36351;SDS011;22382;44.768;17.206;2023-02-26T10:31:10;53.70;;;30.17;;
36351;SDS011;22382;44.768;17.206;2023-02-26T10:36:43;121.43;;;66.43;;
36351;SDS011;22382;44.768;17.206;2023-02-26T10:39:34;52.80;;;33.35;;
36351;SDS011;22382;44.768;17.206;2023-02-26T10:42:26;57.47;;;35.70;;
36351;SDS011;22382;44.768;17.206;2023-02-26T10:48:41;67.32;;;42.20;;
36351;SDS011;22382;44.768;17.206;2023-02-26T10:50:53;53.13;;;33.88;;
36351;SDS011;22382;44.768;17.206;2023-02-26T10:53:29;51.03;;;32.35;;
36351;SDS011;22382;44.768;17.206;2023-02-26T10:59:07;43.30;;;29.17;;
36351;SDS011;22382;44.768;17.206;2023-02-26T11:01:40;41.70;;;28.75;;
36351;SDS011;22382;44.768;17.206;2023-02-26T11:04:13;36.17;;;24.27;;
36351;SDS011;22382;44.768;17.206;2023-02-26T11:06:48;39.15;;;26.05;;
36351;SDS011;22382;44.768;17.206;2023-02-26T11:09:21;31.75;;;21.75;;
36351;SDS011;22382;44.768;17.206;2023-02-26T11:14:18;41.92;;;25.17;;
36351;SDS011;22382;44.768;17.206;2023-02-26T11:16:57;40.00;;;25.75;;
36351;SDS011;22382;44.768;17.206;2023-02-26T11:19:28;36.75;;;24.55;;
36351;SDS011;22382;44.768;17.206;2023-02-26T11:22:14;33.05;;;23.50;;
36351;SDS011;22382;44.768;17.206;2023-02-26T11:24:45;36.47;;;23.10;;
36351;SDS011;22382;44.768;17.206;2023-02-26T11:27:17;25.00;;;18.25;;
36351;SDS011;22382;44.768;17.206;2023-02-26T11:29:48;26.52;;;18.48;;
36351;SDS011;22382;44.768;17.206;2023-02-26T11:32:22;24.52;;;18.13;;
36351;SDS011;22382;44.768;17.206;2023-02-26T11:34:59;26.45;;;18.63;;
36351;SDS011;22382;44.768;17.206;2023-02-26T11:37:30;27.63;;;20.33;;
36351;SDS011;22382;44.768;17.206;2023-02-26T11:40:05;29.27;;;20.27;;
36351;SDS011;22382;44.768;17.206;2023-02-26T11:42:44;29.25;;;18.55;;
36351;SDS011;22382;44.768;17.206;2023-02-26T11:45:18;26.92;;;19.45;;
36351;SDS011;22382;44.768;17.206;2023-02-26T11:47:57;26.10;;;20.20;;
36351;SDS011;22382;44.768;17.206;2023-02-26T11:50:29;33.83;;;23.42;;
36351;SDS011;22382;44.768;17.206;2023-02-26T11:53:06;37.03;;;25.20;;
36351;SDS011;22382;44.768;17.206;2023-02-26T11:55:43;36.40;;;26.38;;
36351;SDS011;22382;44.768;17.206;2023-02-26T11:58:17;37.50;;;27.35;;
36351;SDS011;22382;44.768;17.206;2023-02-26T12:00:46;34.28;;;23.85;;
36351;SDS011;22382;44.768;17.206;2023-02-26T12:03:16;39.38;;;25.83;;
36351;SDS011;22382;44.768;17.206;2023-02-26T12:05:49;39.28;;;26.95;;
36351;SDS011;22382;44.768;17.206;2023-02-26T12:08:29;38.10;;;26.52;;
36351;SDS011;22382;44.768;17.206;2023-02-26T12:42:31;52.63;;;32.55;;
36351;SDS011;22382;44.768;17.206;2023-02-26T12:46:09;59.72;;;37.38;;
36351;SDS011;22382;44.768;17.206;2023-02-26T12:48:24;58.05;;;38.50;;
36351;SDS011;22382;44.768;17.206;2023-02-26T12:58:50;50.22;;;33.00;;
36351;SDS011;22382;44.768;17.206;2023-02-26T13:07:10;38.03;;;25.77;;
36351;SDS011;22382;44.768;17.206;2023-02-26T13:15:57;39.78;;;24.98;;
36351;SDS011;22382;44.768;17.206;2023-02-26T13:21:47;36.53;;;24.25;;
36351;SDS011;22382;44.768;17.206;2023-02-26T13:28:01;34.53;;;23.75;;
36351;SDS011;22382;44.768;17.206;2023-02-26T13:30:39;38.63;;;25.23;;
36351;SDS011;22382;44.768;17.206;2023-02-26T13:33:18;39.72;;;25.35;;
36351;SDS011;22382;44.768;17.206;2023-02-26T13:35:49;38.83;;;24.67;;
36351;SDS011;22382;44.768;17.206;2023-02-26T13:38:20;41.38;;;26.15;;
36351;SDS011;22382;44.768;17.206;2023-02-26T13:51:45;46.08;;;29.13;;
36351;SDS011;22382;44.768;17.206;2023-02-26T13:56:53;35.20;;;23.48;;
36351;SDS011;22382;44.768;17.206;2023-02-26T13:59:36;39.42;;;24.83;;
36351;SDS011;22382;44.768;17.206;2023-02-26T14:05:06;35.22;;;22.67;;
36351;SDS011;22382;44.768;17.206;2023-02-26T14:10:35;40.92;;;25.88;;
36351;SDS011;22382;44.768;17.206;2023-02-26T14:16:00;45.92;;;27.15;;
36351;SDS011;22382;44.768;17.206;2023-02-26T14:27:07;45.42;;;26.73;;
36351;SDS011;22382;44.768;17.206;2023-02-26T14:34:44;37.67;;;24.17;;
36351;SDS011;22382;44.768;17.206;2023-02-26T14:37:18;32.08;;;21.33;;
36351;SDS011;22382;44.768;17.206;2023-02-26T14:39:57;37.33;;;23.90;;
36351;SDS011;22382;44.768;17.206;2023-02-26T14:43:01;34.08;;;21.35;;
36351;SDS011;22382;44.768;17.206;2023-02-26T14:48:06;33.00;;;22.00;;
36351;SDS011;22382;44.768;17.206;2023-02-26T14:50:56;34.38;;;22.10;;
36351;SDS011;22382;44.768;17.206;2023-02-26T15:07:23;33.35;;;20.95;;
36351;SDS011;22382;44.768;17.206;2023-02-26T15:10:06;36.80;;;21.63;;
36351;SDS011;22382;44.768;17.206;2023-02-26T15:15:52;32.70;;;21.42;;
36351;SDS011;22382;44.768;17.206;2023-02-26T15:23:57;32.97;;;21.30;;
36351;SDS011;22382;44.768;17.206;2023-02-26T15:26:26;35.67;;;23.90;;
36351;SDS011;22382;44.768;17.206;2023-02-26T15:28:55;32.88;;;21.70;;
36351;SDS011;22382;44.768;17.206;2023-02-26T15:31:29;32.03;;;22.00;;
36351;SDS011;22382;44.768;17.206;2023-02-26T15:33:59;36.88;;;22.70;;
36351;SDS011;22382;44.768;17.206;2023-02-26T15:36:28;32.20;;;20.38;;
36351;SDS011;22382;44.768;17.206;2023-02-26T15:38:57;35.15;;;21.75;;
36351;SDS011;22382;44.768;17.206;2023-02-26T15:41:27;36.28;;;23.42;;
36351;SDS011;22382;44.768;17.206;2023-02-26T15:43:58;33.95;;;20.75;;
36351;SDS011;22382;44.768;17.206;2023-02-26T15:46:30;27.17;;;16.00;;
36351;SDS011;22382;44.768;17.206;2023-02-26T15:49:01;32.30;;;21.15;;
36351;SDS011;22382;44.768;17.206;2023-02-26T15:51:37;29.50;;;18.23;;
36351;SDS011;22382;44.768;17.206;2023-02-26T15:54:05;26.70;;;18.15;;
36351;SDS011;22382;44.768;17.206;2023-02-26T15:56:34;35.95;;;21.20;;
36351;SDS011;22382;44.768;17.206;2023-02-26T15:59:05;31.23;;;20.80;;
36351;SDS011;22382;44.768;17.206;2023-02-26T16:01:35;34.28;;;20.20;;
36351;SDS011;22382;44.768;17.206;2023-02-26T16:04:06;32.10;;;20.48;;
36351;SDS011;22382;44.768;17.206;2023-02-26T16:06:39;33.95;;;21.35;;
36351;SDS011;22382;44.768;17.206;2023-02-26T16:09:15;35.85;;;23.90;;
36351;SDS011;22382;44.768;17.206;2023-02-26T16:11:44;36.25;;;21.33;;
36351;SDS011;22382;44.768;17.206;2023-02-26T16:14:17;30.52;;;19.40;;
36351;SDS011;22382;44.768;17.206;2023-02-26T16:16:50;32.15;;;19.30;;
36351;SDS011;22382;44.768;17.206;2023-02-26T16:19:20;40.13;;;22.95;;
36351;SDS011;22382;44.768;17.206;2023-02-26T16:21:58;32.42;;;20.02;;
36351;SDS011;22382;44.768;17.206;2023-02-26T16:24:29;32.10;;;18.45;;
36351;SDS011;22382;44.768;17.206;2023-02-26T16:26:59;26.95;;;16.92;;
36351;SDS011;22382;44.768;17.206;2023-02-26T16:29:30;26.88;;;16.60;;
36351;SDS011;22382;44.768;17.206;2023-02-26T16:32:00;26.08;;;16.92;;
36351;SDS011;22382;44.768;17.206;2023-02-26T16:37:10;42.25;;;25.75;;
36351;SDS011;22382;44.768;17.206;2023-02-26T16:40:18;30.67;;;19.10;;
36351;SDS011;22382;44.768;17.206;2023-02-26T16:42:58;28.65;;;17.52;;
36351;SDS011;22382;44.768;17.206;2023-02-26T16:50:52;28.27;;;15.25;;
36351;SDS011;22382;44.768;17.206;2023-02-26T16:53:28;28.00;;;17.85;;
36351;SDS011;22382;44.768;17.206;2023-02-26T16:56:00;29.80;;;16.55;;
36351;SDS011;22382;44.768;17.206;2023-02-26T16:58:29;33.10;;;18.67;;
36351;SDS011;22382;44.768;17.206;2023-02-26T17:01:07;36.30;;;22.42;;
36351;SDS011;22382;44.768;17.206;2023-02-26T17:03:39;33.60;;;21.13;;
36351;SDS011;22382;44.768;17.206;2023-02-26T17:06:10;34.42;;;22.17;;
36351;SDS011;22382;44.768;17.206;2023-02-26T17:14:37;37.03;;;21.48;;
36351;SDS011;22382;44.768;17.206;2023-02-26T17:16:49;32.88;;;20.13;;
36351;SDS011;22382;44.768;17.206;2023-02-26T17:19:17;32.85;;;22.27;;
36351;SDS011;22382;44.768;17.206;2023-02-26T17:21:49;38.78;;;22.75;;
36351;SDS011;22382;44.768;17.206;2023-02-26T17:24:28;46.10;;;28.08;;
36351;SDS011;22382;44.768;17.206;2023-02-26T17:27:01;45.17;;;27.92;;
36351;SDS011;22382;44.768;17.206;2023-02-26T17:29:31;41.65;;;25.83;;
36351;SDS011;22382;44.768;17.206;2023-02-26T17:32:06;43.63;;;27.47;;
36351;SDS011;22382;44.768;17.206;2023-02-26T17:34:42;45.63;;;27.73;;
36351;SDS011;22382;44.768;17.206;2023-02-26T17:37:10;42.28;;;26.13;;
36351;SDS011;22382;44.768;17.206;2023-02-26T17:39:38;40.72;;;24.23;;
36351;SDS011;22382;44.768;17.206;2023-02-26T17:42:14;41.75;;;26.08;;
36351;SDS011;22382;44.768;17.206;2023-02-26T17:44:44;49.20;;;27.15;;
36351;SDS011;22382;44.768;17.206;2023-02-26T17:47:13;117.72;;;64.35;;
36351;SDS011;22382;44.768;17.206;2023-02-26T17:49:47;56.40;;;31.70;;
36351;SDS011;22382;44.768;17.206;2023-02-26T17:52:16;44.72;;;26.83;;
36351;SDS011;22382;44.768;17.206;2023-02-26T17:54:43;50.78;;;29.95;;
36351;SDS011;22382;44.768;17.206;2023-02-26T17:57:14;48.85;;;28.98;;
36351;SDS011;22382;44.768;17.206;2023-02-26T17:59:45;46.53;;;28.48;;
36351;SDS011;22382;44.768;17.206;2023-02-26T18:02:22;51.05;;;30.13;;
36351;SDS011;22382;44.768;17.206;2023-02-26T18:04:58;47.13;;;27.27;;
36351;SDS011;22382;44.768;17.206;2023-02-26T18:07:26;50.83;;;29.65;;
36351;SDS011;22382;44.768;17.206;2023-02-26T18:10:03;54.90;;;33.00;;
36351;SDS011;22382;44.768;17.206;2023-02-26T18:12:43;59.80;;;34.85;;
36351;SDS011;22382;44.768;17.206;2023-02-26T18:15:20;49.80;;;31.48;;
36351;SDS011;22382;44.768;17.206;2023-02-26T18:17:58;49.47;;;28.80;;
36351;SDS011;22382;44.768;17.206;2023-02-26T18:20:32;49.70;;;27.42;;
36351;SDS011;22382;44.768;17.206;2023-02-26T18:23:06;54.10;;;29.23;;
36351;SDS011;22382;44.768;17.206;2023-02-26T18:25:43;53.30;;;29.33;;
36351;SDS011;22382;44.768;17.206;2023-02-26T18:28:24;56.00;;;28.73;;
36351;SDS011;22382;44.768;17.206;2023-02-26T18:30:59;47.78;;;27.33;;
36351;SDS011;22382;44.768;17.206;2023-02-26T18:33:39;47.42;;;26.13;;
36351;SDS011;22382;44.768;17.206;2023-02-26T18:36:22;49.15;;;25.95;;
36351;SDS011;22382;44.768;17.206;2023-02-26T18:38:55;39.33;;;22.42;;